createdAt,value
2023-03-21T00:03:53.637Z,100212.64
2023-03-21T00:09:20.486Z,100206.19
2023-03-21T00:15:24.907Z,100203.04
2023-03-21T00:27:56.802Z,100198.84
2023-03-21T00:33:12.092Z,100190.95
2023-03-21T00:38:32.893Z,100188.88
2023-03-21T00:44:05.692Z,100186.94
2023-03-21T00:49:52.322Z,100188.88
2023-03-21T00:55:24.887Z,100191.89
2023-03-21T01:00:33.681Z,100189.23
2023-03-21T01:06:07.394Z,100190.17
2023-03-21T01:11:25.259Z,100182.80
2023-03-21T01:16:38.049Z,100187.16
2023-03-21T01:22:02.043Z,100183.35
2023-03-21T01:27:22.570Z,100176.21
2023-03-21T01:32:48.733Z,100171.73
2023-03-21T01:37:54.692Z,100174.94
2023-03-21T01:43:03.034Z,100175.52
2023-03-21T01:48:06.792Z,100165.21
2023-03-21T01:53:22.512Z,100169.57
2023-03-21T01:58:26.653Z,100163.59
2023-03-21T02:03:55.555Z,100157.97
2023-03-21T02:09:26.300Z,100158.48
2023-03-21T02:14:33.910Z,100156.05
2023-03-21T02:20:16.399Z,100157.48
2023-03-21T02:26:41.155Z,100154.38
2023-03-21T02:32:15.170Z,100161.13
2023-03-21T02:38:15.192Z,100161.34
2023-03-21T02:44:06.603Z,100158.15
2023-03-21T02:49:38.192Z,100159.77
2023-03-21T02:54:57.104Z,100162.92
2023-03-21T03:00:16.262Z,100167.35
2023-03-21T03:06:15.445Z,100166.61
2023-03-21T03:11:28.946Z,100172.60
2023-03-21T03:16:47.192Z,100178.68
2023-03-21T03:22:08.825Z,100181.63
2023-03-21T03:27:25.046Z,100183.73
2023-03-21T03:33:08.534Z,100181.95
2023-03-21T03:38:14.472Z,100181.15
2023-03-21T03:43:52.400Z,100180.70
2023-03-21T03:49:14.002Z,100181.33
2023-03-21T03:54:37.227Z,100185.02
2023-03-21T03:59:52.819Z,100183.42
2023-03-21T04:04:59.686Z,100189.39
2023-03-21T04:10:09.353Z,100180.21
2023-03-21T04:15:22.356Z,100180.73
2023-03-21T04:20:36.897Z,100181.58
2023-03-21T04:26:04.598Z,100175.56
2023-03-21T04:31:53.587Z,100183.98
2023-03-21T04:37:44.239Z,100182.39
2023-03-21T04:43:52.493Z,100184.47
2023-03-21T04:49:39.082Z,100183.63
2023-03-21T04:55:33.337Z,100180.56
2023-03-21T05:00:57.463Z,100188.52
2023-03-21T05:06:11.928Z,100193.11
2023-03-21T05:11:38.068Z,100194.92
2023-03-21T05:16:45.231Z,100198.58
2023-03-21T05:22:19.450Z,100202.21
2023-03-21T05:27:36.641Z,100205.64
2023-03-21T05:33:01.016Z,100205.76
2023-03-21T05:38:18.671Z,100203.31
2023-03-21T05:43:27.652Z,100209.94
2023-03-21T05:49:00.564Z,100214.14
2023-03-21T05:54:04.840Z,100219.14
2023-03-21T05:59:08.612Z,100221.13
2023-03-21T06:04:16.579Z,100231.20
2023-03-21T06:09:37.181Z,100240.23
2023-03-21T06:14:43.482Z,100239.65
2023-03-21T06:20:01.212Z,100247.15
2023-03-21T06:25:30.555Z,100249.95
2023-03-21T06:30:37.542Z,100250.59
2023-03-21T06:35:59.108Z,100249.55
2023-03-21T06:41:33.011Z,100256.05
2023-03-21T06:47:02.254Z,100257.09
2023-03-21T06:52:06.301Z,100261.14
2023-03-21T06:57:11.718Z,100265.25
2023-03-21T07:02:36.190Z,100268.42
2023-03-21T07:07:55.612Z,100273.16
2023-03-21T07:13:04.289Z,100279.94
2023-03-21T07:18:19.031Z,100277.08
2023-03-21T07:23:38.180Z,100276.16
2023-03-21T07:28:53.004Z,100284.66
2023-03-21T07:34:39.468Z,100285.66
2023-03-21T07:40:10.365Z,100287.01
2023-03-21T07:45:54.923Z,100278.98
2023-03-21T07:50:58.634Z,100284.45
2023-03-21T07:56:24.802Z,100284.92
2023-03-21T08:01:45.549Z,100288.96
2023-03-21T08:06:52.104Z,100288.48
2023-03-21T08:12:01.745Z,100285.85
2023-03-21T08:17:15.486Z,100289.53
2023-03-21T08:22:47.911Z,100293.89
2023-03-21T08:28:34.186Z,100297.60
2023-03-21T08:33:54.501Z,100299.57
2023-03-21T08:39:07.103Z,100301.79
2023-03-21T08:44:25.457Z,100301.42
2023-03-21T08:49:49.955Z,100304.23
2023-03-21T08:54:56.499Z,100314.58
2023-03-21T09:00:23.383Z,100319.62
2023-03-21T09:05:38.112Z,100320.05
2023-03-21T09:11:04.453Z,100321.89
2023-03-21T09:16:11.570Z,100326.11
2023-03-21T09:21:20.459Z,100325.82
2023-03-21T09:26:57.529Z,100330.27
2023-03-21T09:32:32.499Z,100337.66
2023-03-21T09:37:42.420Z,100339.34
2023-03-21T09:43:28.974Z,100341.15
2023-03-21T09:49:17.546Z,100344.74
2023-03-21T09:54:34.938Z,100343.64
2023-03-21T09:59:43.593Z,100344.52
2023-03-21T10:04:47.220Z,100352.59
2023-03-21T10:09:52.694Z,100350.98
2023-03-21T10:14:59.118Z,100351.48
2023-03-21T10:20:35.853Z,100354.23
2023-03-21T10:26:21.706Z,100358.36
2023-03-21T10:31:36.166Z,100360.86
2023-03-21T10:36:53.348Z,100359.98
2023-03-21T10:42:07.335Z,100356.67
2023-03-21T10:47:10.742Z,100360.66
2023-03-21T10:52:36.744Z,100365.24
2023-03-21T10:58:07.973Z,100363.98
2023-03-21T11:03:48.457Z,100364.17
2023-03-21T11:09:04.258Z,100371.93
2023-03-21T11:14:24.198Z,100365.31
2023-03-21T11:19:33.498Z,100363.44
2023-03-21T11:24:51.407Z,100359.58
2023-03-21T11:30:40.058Z,100356.40
2023-03-21T11:36:17.982Z,100343.26
2023-03-21T11:41:56.607Z,100343.58
2023-03-21T11:47:11.627Z,100341.39
2023-03-21T11:52:51.581Z,100344.15
2023-03-21T11:58:14.892Z,100345.84
2023-03-21T12:03:53.016Z,100350.06
2023-03-21T12:09:45.397Z,100346.93
2023-03-21T12:15:23.573Z,100345.48
2023-03-21T12:21:01.986Z,100344.95
2023-03-21T12:26:31.523Z,100339.90
2023-03-21T12:32:04.423Z,100336.20
2023-03-21T12:37:28.373Z,100327.64
2023-03-21T12:43:12.535Z,100326.77
2023-03-21T12:49:15.620Z,100329.71
2023-03-21T12:54:58.602Z,100327.85
2023-03-21T13:00:52.096Z,100321.86
2023-03-21T13:06:25.540Z,100327.16
2023-03-21T13:11:34.070Z,100332.79
2023-03-21T13:17:19.556Z,100333.42
2023-03-21T13:22:29.000Z,100333.23
2023-03-21T13:27:46.192Z,100321.39
2023-03-21T13:32:51.625Z,100314.66
2023-03-21T13:38:14.919Z,100313.36
2023-03-21T13:43:56.876Z,100312.80
2023-03-21T13:49:26.784Z,100311.80
2023-03-21T13:54:51.168Z,100309.95
2023-03-21T14:00:29.471Z,100314.35
2023-03-21T14:05:35.494Z,100311.35
2023-03-21T14:10:42.630Z,100312.23
2023-03-21T14:15:58.282Z,100313.84
2023-03-21T14:21:28.169Z,100316.21
2023-03-21T14:26:38.053Z,100319.08
2023-03-21T14:31:42.159Z,100319.19
2023-03-21T14:36:56.910Z,100316.67
2023-03-21T14:42:15.792Z,100315.95
2023-03-21T14:47:41.319Z,100313.76
2023-03-21T14:52:44.852Z,100308.38
2023-03-21T14:57:52.149Z,100306.59
2023-03-21T15:02:59.365Z,100309.34
2023-03-21T15:08:29.102Z,100305.89
2023-03-21T15:14:08.498Z,100305.54
2023-03-21T15:19:47.705Z,100303.65
2023-03-21T15:25:08.492Z,100303.10
2023-03-21T15:30:51.145Z,100299.11
2023-03-21T15:36:20.723Z,100298.42
2023-03-21T15:41:30.166Z,100298.71
2023-03-21T15:46:49.152Z,100300.72
2023-03-21T15:52:23.687Z,100297.85
2023-03-21T15:57:50.312Z,100303.20
2023-03-21T16:03:05.059Z,100300.30
2023-03-21T16:08:32.804Z,100299.67
2023-03-21T16:13:39.188Z,100294.48
2023-03-21T16:18:45.957Z,100298.52
2023-03-21T16:24:50.083Z,100293.65
2023-03-21T16:29:56.324Z,100295.13
2023-03-21T16:35:01.460Z,100291.67
2023-03-21T16:40:19.846Z,100293.23
2023-03-21T16:45:33.611Z,100290.55
2023-03-21T16:50:46.396Z,100299.56
2023-03-21T16:55:52.741Z,100304.07
2023-03-21T17:01:19.387Z,100307.14
2023-03-21T17:06:25.612Z,100314.60
2023-03-21T17:11:36.383Z,100323.31
2023-03-21T17:16:43.065Z,100324.29
2023-03-21T17:21:47.333Z,100327.83
2023-03-21T17:26:54.128Z,100330.34
2023-03-21T17:32:00.523Z,100336.64
2023-03-21T17:37:09.879Z,100341.64
2023-03-21T17:42:20.857Z,100344.90
2023-03-21T17:47:42.775Z,100347.39
2023-03-21T17:52:50.853Z,100352.95
2023-03-21T17:58:06.369Z,100354.63
2023-03-21T18:03:13.523Z,100360.19
2023-03-21T18:08:28.693Z,100364.80
2023-03-21T18:13:34.851Z,100369.98
2023-03-21T18:18:53.748Z,100378.03
2023-03-21T18:25:01.042Z,100389.10
2023-03-21T18:30:36.114Z,100389.91
2023-03-21T18:36:07.539Z,100385.90
2023-03-21T18:41:15.340Z,100383.21
2023-03-21T18:46:26.764Z,100385.56
2023-03-21T18:51:36.517Z,100386.81
2023-03-21T19:02:44.008Z,100393.98
2023-03-21T19:08:09.589Z,100394.46
2023-03-21T19:13:19.665Z,100388.33
2023-03-21T19:19:15.894Z,100386.64
2023-03-21T19:24:51.146Z,100390.15
2023-03-21T19:30:16.164Z,100388.14
2023-03-21T19:35:42.046Z,100392.20
2023-03-21T19:41:20.216Z,100391.88
2023-03-21T19:46:48.620Z,100391.92
2023-03-21T19:51:52.394Z,100393.84
2023-03-21T19:57:02.012Z,100395.42
2023-03-21T20:02:34.490Z,100396.80
2023-03-21T20:08:03.477Z,100400.77
2023-03-21T20:13:07.404Z,100402.13
2023-03-21T20:19:01.206Z,100405.59
2023-03-21T20:24:16.632Z,100412.05
2023-03-21T20:36:28.597Z,100419.04
2023-03-21T20:41:01.739Z,100411.97
2023-03-21T20:46:10.669Z,100419.75
2023-03-21T20:57:29.008Z,100409.38
2023-03-21T21:02:35.895Z,100404.90
2023-03-21T21:08:47.411Z,100397.65
2023-03-21T21:14:16.752Z,100390.77
2023-03-21T21:19:23.722Z,100390.96
2023-03-21T21:25:20.094Z,100402.36
2023-03-21T21:31:34.729Z,100401.84
2023-03-21T21:36:51.321Z,100394.59
2023-03-21T21:42:48.558Z,100394.77
2023-03-21T21:48:39.898Z,100394.95
2023-03-21T21:54:56.643Z,100390.98
2023-03-21T22:00:27.415Z,100388.91
2023-03-21T22:06:05.753Z,100394.42
2023-03-21T22:11:19.417Z,100397.34
2023-03-21T22:16:37.720Z,100405.42
2023-03-21T22:22:04.383Z,100406.27
2023-03-21T22:27:17.624Z,100403.17
2023-03-21T22:32:32.540Z,100403.16
2023-03-21T22:38:12.506Z,100395.41
2023-03-21T22:43:55.368Z,100383.88
2023-03-21T22:50:19.711Z,100389.73
2023-03-21T22:56:23.847Z,100391.11
2023-03-21T23:01:39.969Z,100394.19
2023-03-21T23:06:43.919Z,100393.98
2023-03-21T23:11:49.704Z,100389.64
2023-03-21T23:17:10.283Z,100392.20
2023-03-21T23:22:37.561Z,100392.67
2023-03-21T23:29:01.968Z,100396.61
2023-03-21T23:34:38.356Z,100393.69
2023-03-21T23:40:08.993Z,100391.11
2023-03-21T23:45:44.231Z,100387.81
2023-03-21T23:50:58.252Z,100377.95
2023-03-21T23:56:11.475Z,100371.58
